Pct Moose — CGCZ — position and weather

sailwx.info

Track history (hours):
 
Tides and Currents Weather Stations Pressure Air Temp Water Temp Dewpoint Dewpoint Depression Visibility Wind Speed Wind Dir Waves Ship Positions

Pct Moose

Last reported at 2017-Nov-19 21:18 UTC. Time now 2017-Nov-23 17:01 UTC.
Position N 48°26' W 123°27'.

Length 33 m; draft 2.6 m.

Type: Military. MMSI: 316013412.

Date/timePositionNaut miles runAvg speedWind from/ knotsBaromVisibWave heightAir tempDewpointWater temp
2017-Nov-19 21:18N 48°26' W 123°27'0 0.1
2017-Nov-19 21:00N 48°26' W 123°27'3 7.0
2017-Nov-19 20:31N 48°24' W 123°24'510.1
2017-Nov-19 20:01N 48°26' W 123°17'611.7
2017-Nov-19 19:31N 48°31' W 123°13'611.9
2017-Nov-19 19:00N 48°37' W 123°15'18 5.4
2017-Nov-19 15:44N 48°51' W 123°30'0 0.0
2017-Nov-19 00:42N 48°51' W 123°30'0 0.8
2017-Nov-19 00:28N 48°51' W 123°30'3 5.6
2017-Nov-18 23:54N 48°51' W 123°25'4 8.3
2017-Nov-18 23:29N 48°54' W 123°25'0 0.0
2017-Nov-18 22:56N 48°54' W 123°25'1 1.9
2017-Nov-18 22:20N 48°53' W 123°26'710.6
2017-Nov-18 21:40N 48°49' W 123°17'2 9.5
2017-Nov-18 21:29N 48°49' W 123°15'2 3.2
2017-Nov-18 20:59N 48°47' W 123°14'5 9.9
2017-Nov-18 20:30N 48°44' W 123°09'9 0.4
2017-Nov-17 21:24N 48°45' W 123°23'410.9
2017-Nov-17 21:00N 48°49' W 123°20'4 8.6
2017-Nov-17 20:29N 48°54' W 123°18'811.7
2017-Nov-17 19:50N 48°60' W 123°25'710.0
2017-Nov-17 19:07N 49°05' W 123°34'2 9.7
2017-Nov-17 18:55N 49°06' W 123°36'614.4
2017-Nov-17 18:30N 49°12' W 123°34'8 0.4
2017-Nov-16 23:01N 49°13' W 123°45'18 4.8
2017-Nov-16 19:19N 48°57' W 123°33'811.6
2017-Nov-16 18:39N 48°52' W 123°24'2 5.2
2017-Nov-16 18:17N 48°51' W 123°22'3 8.0
2017-Nov-16 17:58N 48°49' W 123°20'4 5.1
2017-Nov-16 17:11N 48°50' W 123°26'1 3.8
2017-Nov-16 17:00N 48°50' W 123°27'2 0.1
2017-Nov-16 00:05N 48°51' W 123°30'1 2.3
2017-Nov-15 23:40N 48°51' W 123°29'1 5.2
2017-Nov-15 23:29N 48°50' W 123°28'3 5.3
2017-Nov-15 22:53N 48°49' W 123°23'410.0
2017-Nov-15 22:29N 48°46' W 123°19'511.4
2017-Nov-15 22:00N 48°41' W 123°15'612.3
2017-Nov-15 21:30N 48°35' W 123°13'5 9.8
2017-Nov-15 21:00N 48°30' W 123°11'611.8
2017-Nov-15 20:31N 48°25' W 123°10'713.1
2017-Nov-15 20:00N 48°22' W 123°20'5 9.2
2017-Nov-15 19:25N 48°23' W 123°28'1 3.1
2017-Nov-15 19:00N 48°24' W 123°27'2 4.0
2017-Nov-15 18:27N 48°26' W 123°27'0 0.0
2017-Nov-15 17:56N 48°26' W 123°27'0 0.0
2017-Nov-15 17:26N 48°26' W 123°27'0 0.0
2017-Nov-15 16:56N 48°26' W 123°27'0 0.0
2017-Nov-15 16:25N 48°26' W 123°27'0 0.0
2017-Nov-15 15:58N 48°26' W 123°27'  
2017-Nov-10 16:13N 48°26' W 123°27'0 1.1
2017-Nov-10 16:00N 48°26' W 123°27'0 0.0
2017-Nov-10 05:34N 48°26' W 123°27'0 0.8
2017-Nov-10 05:30N 48°26' W 123°27'2 4.8
2017-Nov-10 05:00N 48°24' W 123°25'5 9.6
2017-Nov-10 04:30N 48°22' W 123°18'5 9.4
2017-Nov-10 03:57N 48°19' W 123°25'4 9.9
2017-Nov-10 03:30N 48°16' W 123°29'7 9.2
2017-Nov-10 02:45N 48°20' W 123°37'1 0.2
2017-Nov-09 21:48N 48°20' W 123°36'0 0.0
2017-Nov-09 21:30N 48°20' W 123°36'  
Track history (hours):
 
Tides and Currents Weather Stations Pressure Air Temp Water Temp Dewpoint Dewpoint Depression Visibility Wind Speed Wind Dir Waves Ship Positions

Pct Moose

Last reported at 2017-Nov-19 21:18 UTC. Time now 2017-Nov-23 17:01 UTC.
Position N 48°26' W 123°27'.

Length 33 m; draft 2.6 m.

Type: Military. MMSI: 316013412.

Date/timePositionNaut miles runAvg speedWind from/ knotsBaromVisibWave heightAir tempDewpointWater temp
2017-Nov-19 21:18N 48°26' W 123°27'0 0.1
2017-Nov-19 21:00N 48°26' W 123°27'3 7.0
2017-Nov-19 20:31N 48°24' W 123°24'510.1
2017-Nov-19 20:01N 48°26' W 123°17'611.7
2017-Nov-19 19:31N 48°31' W 123°13'611.9
2017-Nov-19 19:00N 48°37' W 123°15'18 5.4
2017-Nov-19 15:44N 48°51' W 123°30'0 0.0
2017-Nov-19 00:42N 48°51' W 123°30'0 0.8
2017-Nov-19 00:28N 48°51' W 123°30'3 5.6
2017-Nov-18 23:54N 48°51' W 123°25'4 8.3
2017-Nov-18 23:29N 48°54' W 123°25'0 0.0
2017-Nov-18 22:56N 48°54' W 123°25'1 1.9
2017-Nov-18 22:20N 48°53' W 123°26'710.6
2017-Nov-18 21:40N 48°49' W 123°17'2 9.5
2017-Nov-18 21:29N 48°49' W 123°15'2 3.2
2017-Nov-18 20:59N 48°47' W 123°14'5 9.9
2017-Nov-18 20:30N 48°44' W 123°09'9 0.4
2017-Nov-17 21:24N 48°45' W 123°23'410.9
2017-Nov-17 21:00N 48°49' W 123°20'4 8.6
2017-Nov-17 20:29N 48°54' W 123°18'811.7
2017-Nov-17 19:50N 48°60' W 123°25'710.0
2017-Nov-17 19:07N 49°05' W 123°34'2 9.7
2017-Nov-17 18:55N 49°06' W 123°36'614.4
2017-Nov-17 18:30N 49°12' W 123°34'8 0.4
2017-Nov-16 23:01N 49°13' W 123°45'18 4.8
2017-Nov-16 19:19N 48°57' W 123°33'811.6
2017-Nov-16 18:39N 48°52' W 123°24'2 5.2
2017-Nov-16 18:17N 48°51' W 123°22'3 8.0
2017-Nov-16 17:58N 48°49' W 123°20'4 5.1
2017-Nov-16 17:11N 48°50' W 123°26'1 3.8
2017-Nov-16 17:00N 48°50' W 123°27'2 0.1
2017-Nov-16 00:05N 48°51' W 123°30'1 2.3
2017-Nov-15 23:40N 48°51' W 123°29'1 5.2
2017-Nov-15 23:29N 48°50' W 123°28'3 5.3
2017-Nov-15 22:53N 48°49' W 123°23'410.0
2017-Nov-15 22:29N 48°46' W 123°19'511.4
2017-Nov-15 22:00N 48°41' W 123°15'612.3
2017-Nov-15 21:30N 48°35' W 123°13'5 9.8
2017-Nov-15 21:00N 48°30' W 123°11'611.8
2017-Nov-15 20:31N 48°25' W 123°10'713.1
2017-Nov-15 20:00N 48°22' W 123°20'5 9.2
2017-Nov-15 19:25N 48°23' W 123°28'1 3.1
2017-Nov-15 19:00N 48°24' W 123°27'2 4.0
2017-Nov-15 18:27N 48°26' W 123°27'0 0.0
2017-Nov-15 17:56N 48°26' W 123°27'0 0.0
2017-Nov-15 17:26N 48°26' W 123°27'0 0.0
2017-Nov-15 16:56N 48°26' W 123°27'0 0.0
2017-Nov-15 16:25N 48°26' W 123°27'0 0.0
2017-Nov-15 15:58N 48°26' W 123°27'  
2017-Nov-10 16:13N 48°26' W 123°27'0 1.1
2017-Nov-10 16:00N 48°26' W 123°27'0 0.0
2017-Nov-10 05:34N 48°26' W 123°27'0 0.8
2017-Nov-10 05:30N 48°26' W 123°27'2 4.8
2017-Nov-10 05:00N 48°24' W 123°25'5 9.6
2017-Nov-10 04:30N 48°22' W 123°18'5 9.4
2017-Nov-10 03:57N 48°19' W 123°25'4 9.9
2017-Nov-10 03:30N 48°16' W 123°29'7 9.2
2017-Nov-10 02:45N 48°20' W 123°37'1 0.2
2017-Nov-09 21:48N 48°20' W 123°36'0 0.0
2017-Nov-09 21:30N 48°20' W 123°36'  

Dump ship's entire track history